»·PEaware :: 286NF L52-L88

286NF :: L52-L88

FLIGHT INFORMATION

Flight Status: Arrived
Operator: Unknown
More flights by this operator :: More flights under this callsign
Pilot: Norbert F. (15442)
Aircraft: PIPER PA-24 COMMANCHE
(PA24)
More flights by this aircraft type
Origin: L52 Oceano Co
United States
Destination: L88 New Cuyama
United States
More flights between these airports :: More routes between these airports
Route: DCT
File this flight plan on PilotEdge
Remarks: CAT-01 rating
Altitude:
(Current/Filed)
7,500ft
Speed:
(Current/Filed)
160kts
Departed: 21-Sep-18 06:12 PM
Arrived: 21-Sep-18 06:37 PM
Distance/Time
Traveled:
47nm/0:24
Distance/Time
To Go:
Arrived

Flight Plot

Page will automatically refresh every two minutes.


Map Options




Map Legend


Flown Route
Filed Route
Departure Airport
Arrival Airport
Navaid (VOR, NDB)
Fix

Horizontal Profiles

Position Reports

Time Latitude Longitude Heading Altitude Ground
Speed
21-Sep-18 17:56 35.103169 -120.623697 34 17ft 0kts
21-Sep-18 17:57 35.103169 -120.623697 34 17ft 0kts
21-Sep-18 17:58 35.103169 -120.623697 34 17ft 0kts
21-Sep-18 17:59 35.103169 -120.623697 34 17ft 0kts
21-Sep-18 18:00 35.103169 -120.623697 34 17ft 0kts
21-Sep-18 18:01 35.103170 -120.623697 34 17ft 0kts
21-Sep-18 18:02 35.103172 -120.623695 34 17ft 0kts
21-Sep-18 18:03 35.103174 -120.623694 34 17ft 0kts
21-Sep-18 18:04 35.103176 -120.623692 34 17ft 0kts
21-Sep-18 18:05 35.103177 -120.623691 34 17ft 0kts
21-Sep-18 18:06 35.103178 -120.623690 34 17ft 0kts
21-Sep-18 18:07 35.103143 -120.623679 83 17ft 1kts
21-Sep-18 18:08 35.102053 -120.622319 170 17ft 4kts
21-Sep-18 18:09 35.101067 -120.622438 122 17ft 6kts
21-Sep-18 18:10 35.099601 -120.619869 124 17ft 8kts
21-Sep-18 18:11 35.099132 -120.619473 97 17ft 0kts
21-Sep-18 18:12 35.099130 -120.619444 93 17ft 2kts
21-Sep-18 18:13 35.099300 -120.619237 30 17ft 0kts
21-Sep-18 18:14 35.104709 -120.629611 290 399ft 77kts
21-Sep-18 18:15 35.098229 -120.618058 82 1524ft 108kts
21-Sep-18 18:16 35.094823 -120.583057 97 2956ft 103kts
21-Sep-18 18:17 35.089386 -120.548703 103 4199ft 103kts
21-Sep-18 18:18 35.083168 -120.514165 101 5134ft 105kts
21-Sep-18 18:19 35.077424 -120.479203 103 5986ft 106kts
21-Sep-18 18:20 35.071210 -120.443728 103 6803ft 107kts
21-Sep-18 18:21 35.065033 -120.406501 104 7454ft 124kts
21-Sep-18 18:22 35.057151 -120.361113 104 7497ft 145kts
21-Sep-18 18:23 35.048866 -120.311460 103 7485ft 150kts
21-Sep-18 18:24 35.040198 -120.261484 103 7483ft 151kts
21-Sep-18 18:25 35.031636 -120.211108 103 7470ft 152kts
21-Sep-18 18:26 35.022729 -120.159983 103 7461ft 154kts
21-Sep-18 18:27 35.014047 -120.109404 102 7458ft 151kts
21-Sep-18 18:28 35.005139 -120.058610 103 7159ft 158kts
21-Sep-18 18:29 34.995730 -120.004469 103 6366ft 166kts
21-Sep-18 18:30 34.985994 -119.948751 104 5492ft 167kts
21-Sep-18 18:31 34.976359 -119.894072 102 4696ft 164kts
21-Sep-18 18:32 34.967182 -119.839820 103 3922ft 161kts
21-Sep-18 18:33 34.959762 -119.789909 96 3647ft 140kts
21-Sep-18 18:34 34.953580 -119.745306 111 3625ft 116kts
21-Sep-18 18:35 34.939146 -119.708500 118 3767ft 122kts
21-Sep-18 18:36 34.947674 -119.686383 303 3260ft 124kts
21-Sep-18 18:37 34.957901 -119.716237 215 2897ft 83kts
21-Sep-18 18:38 34.941311 -119.698329 116 2319ft 78kts
21-Sep-18 18:39 34.937741 -119.689038 291 2206ft 8kts
21-Sep-18 18:40 34.939391 -119.693404 294 2206ft 7kts
21-Sep-18 18:41 34.939956 -119.693849 25 2206ft 0kts
21-Sep-18 18:42 34.939956 -119.693848 25 2206ft 0kts
21-Sep-18 18:43 34.939956 -119.693848 25 2206ft 0kts
21-Sep-18 18:44 34.939956 -119.693848 25 2206ft 0kts
21-Sep-18 18:45 34.939956 -119.693848 25 2206ft 0kts
21-Sep-18 18:46 34.939956 -119.693848 25 2206ft 0kts
21-Sep-18 18:47 34.939956 -119.693848 25 2206ft 0kts
21-Sep-18 18:48 34.939956 -119.693848 25 2206ft 0kts
21-Sep-18 18:49 34.939956 -119.693848 25 2206ft 0kts

Navigation Log

Ident Type
Flight plan parsing failed, navigation log unavailable